Time;durP1;ratioP1;P1;durP2;ratioP2;P2;SDS_P1;SDS_P2;PMS_P1;PMS_P2;Temp;Humidity;BMP_temperature;BMP_pressure;BME280_temperature;BME280_humidity;BME280_pressure;Samples;Min_cycle;Max_cycle;Signal;HPM_P1;HPM_P2
2022/01/29 00:01:05;;;;;;;;;12.25;12.25;;;;;6.87;75.11;102700.41;5044009;28;45386;-81
2022/01/29 00:03:32;;;;;;;;;12.75;12.50;;;;;6.92;74.30;102714.59;5044457;28;45288;-81
2022/01/29 00:05:59;;;;;;;;;14.75;12.75;;;;;6.91;74.80;102706.66;5035365;28;46186;-81
2022/01/29 00:08:24;;;;;;;;;12.50;12.00;;;;;6.92;74.74;102704.06;5034808;28;45498;-81
2022/01/29 00:10:54;;;;;;;;;8.50;7.75;;;;;6.90;74.54;102703.13;5022197;28;45457;-81
2022/01/29 00:13:20;;;;;;;;;14.00;12.00;;;;;6.91;74.79;102690.88;5052863;28;45311;-82
2022/01/29 00:15:45;;;;;;;;;12.75;7.00;;;;;6.96;74.87;102707.69;5035537;28;46500;-81
2022/01/29 00:18:11;;;;;;;;;16.25;10.00;;;;;6.93;74.63;102695.31;5049184;28;45265;-79
2022/01/29 00:20:36;;;;;;;;;12.00;9.50;;;;;6.97;74.37;102698.03;5032140;28;45457;-81
2022/01/29 00:23:01;;;;;;;;;12.75;9.00;;;;;6.95;74.32;102687.47;5036909;28;45318;-80
2022/01/29 00:25:27;;;;;;;;;17.75;13.75;;;;;6.98;74.75;102692.81;5045836;28;46075;-79
2022/01/29 00:27:53;;;;;;;;;9.75;6.75;;;;;6.94;74.69;102676.06;5054223;28;45631;-80
2022/01/29 00:30:24;;;;;;;;;15.75;11.75;;;;;6.98;74.46;102679.66;5045449;28;45425;-80
2022/01/29 00:32:50;;;;;;;;;13.00;13.00;;;;;6.94;74.26;102669.94;5047175;28;45558;-80
2022/01/29 00:35:15;;;;;;;;;11.50;9.75;;;;;6.98;74.54;102660.38;5038461;28;50335;-80
2022/01/29 00:37:41;;;;;;;;;7.00;7.00;;;;;6.95;74.32;102655.94;5042337;28;45326;-81
2022/01/29 00:40:07;;;;;;;;;11.50;9.50;;;;;6.97;73.81;102656.88;5041014;28;45437;-80
2022/01/29 00:42:32;;;;;;;;;13.25;12.50;;;;;6.96;73.47;102648.94;5053025;28;45734;-80
2022/01/29 00:44:57;;;;;;;;;13.75;9.75;;;;;6.99;74.54;102656.91;5054214;28;45725;-79
2022/01/29 00:47:23;;;;;;;;;9.50;8.50;;;;;6.96;74.45;102648.94;5045463;28;45406;-80
2022/01/29 00:49:48;;;;;;;;;13.75;11.00;;;;;6.99;74.07;102644.66;5033662;28;45399;-79
2022/01/29 00:52:13;;;;;;;;;9.50;7.75;;;;;6.94;74.39;102639.28;5037280;28;45701;-80
2022/01/29 00:54:39;;;;;;;;;9.00;9.00;;;;;6.93;73.63;102636.59;5040181;28;45462;-79
2022/01/29 00:57:05;;;;;;;;;6.75;6.75;;;;;6.97;74.42;102645.44;5048986;28;45496;-79
2022/01/29 00:59:32;;;;;;;;;10.50;10.50;;;;;6.97;74.20;102642.81;5046617;28;45455;-81
2022/01/29 01:01:58;;;;;;;;;13.00;8.75;;;;;6.98;74.58;102640.22;5055003;28;45390;-80
2022/01/29 01:04:24;;;;;;;;;4.25;3.00;;;;;6.97;74.47;102638.47;5056319;28;46475;-80
2022/01/29 01:06:50;;;;;;;;;12.25;11.00;;;;;6.96;73.90;102630.53;5055565;28;45517;-80
2022/01/29 01:09:15;;;;;;;;;12.75;10.00;;;;;6.99;74.37;102628.00;5037802;28;45491;-80
2022/01/29 01:11:41;;;;;;;;;13.75;10.00;;;;;6.94;75.23;102633.13;5039592;28;45537;-80
2022/01/29 01:14:07;;;;;;;;;10.50;7.50;;;;;6.93;74.94;102629.59;5054573;28;46361;-80
2022/01/29 01:16:33;;;;;;;;;11.25;8.00;;;;;6.93;75.90;102626.97;5046695;28;45537;-80
2022/01/29 01:19:00;;;;;;;;;13.50;10.00;;;;;6.94;75.73;102623.50;5042973;28;45435;-80
2022/01/29 01:21:26;;;;;;;;;13.00;12.00;;;;;6.91;77.07;102628.66;5035938;28;45543;-79
2022/01/29 01:23:52;;;;;;;;;28.25;21.25;;;;;6.90;77.46;102621.63;5041289;28;45962;-79
2022/01/29 01:26:18;;;;;;;;;15.00;11.75;;;;;6.90;77.33;102626.88;5037134;28;45465;-80
2022/01/29 01:28:43;;;;;;;;;10.50;8.75;;;;;6.90;77.09;102631.25;5048496;28;45584;-80
2022/01/29 01:31:09;;;;;;;;;13.25;12.50;;;;;6.86;77.63;102625.03;5041007;28;45398;-80
2022/01/29 01:33:34;;;;;;;;;12.75;10.25;;;;;6.87;78.15;102629.41;5038544;28;45809;-80
2022/01/29 01:36:03;;;;;;;;;7.00;7.00;;;;;6.85;78.15;102628.50;5049351;28;45351;-81
2022/01/29 01:38:42;;;;;;;;;8.75;8.75;;;;;6.86;77.33;102630.28;5056191;28;45468;-80
2022/01/29 01:41:12;;;;;;;;;20.00;12.25;;;;;6.83;77.54;102627.59;5028805;28;45467;-80
2022/01/29 01:43:38;;;;;;;;;11.50;9.50;;;;;6.68;78.05;102606.09;5042996;28;46449;-80
2022/01/29 01:46:04;;;;;;;;;13.00;13.00;;;;;6.80;78.94;102634.47;5040696;28;45625;-80
2022/01/29 01:48:29;;;;;;;;;13.25;10.75;;;;;6.79;78.59;102620.44;5044306;28;45665;-80
2022/01/29 01:50:55;;;;;;;;;9.25;9.25;;;;;6.83;78.24;102624.03;5055287;28;45458;-80
2022/01/29 01:53:21;;;;;;;;;10.50;10.00;;;;;6.75;79.03;102615.94;5057325;28;45534;-80
2022/01/29 01:55:48;;;;;;;;;11.00;9.00;;;;;6.80;79.09;102614.31;5040984;28;45379;-80
2022/01/29 01:58:14;;;;;;;;;10.50;6.25;;;;;6.73;79.70;102612.38;5047907;28;45482;-80
2022/01/29 02:00:40;;;;;;;;;9.25;6.75;;;;;6.73;79.63;102615.03;5042805;28;45446;-80
2022/01/29 02:03:05;;;;;;;;;13.00;7.00;;;;;6.72;79.74;102621.09;5050907;28;45362;-80
2022/01/29 02:05:31;;;;;;;;;11.50;10.25;;;;;6.72;79.74;102607.97;5047938;28;45391;-80
2022/01/29 02:07:57;;;;;;;;;14.25;9.00;;;;;6.56;80.29;102585.63;5049584;28;45315;-80
2022/01/29 02:10:25;;;;;;;;;23.00;15.75;;;;;6.74;80.29;102608.88;5041828;28;45365;-80
2022/01/29 02:12:56;;;;;;;;;24.75;21.00;;;;;6.67;79.63;102592.06;5043330;28;45615;-79
2022/01/29 02:15:22;;;;;;;;;10.75;9.50;;;;;6.70;79.59;102593.91;5053210;28;45525;-80
2022/01/29 02:17:48;;;;;;;;;10.25;9.50;;;;;6.66;79.46;102594.66;5044397;28;45482;-81
2022/01/29 02:20:17;;;;;;;;;6.50;6.50;;;;;6.68;80.03;102596.50;5038663;28;45526;-79
2022/01/29 02:22:43;;;;;;;;;10.00;10.00;;;;;6.69;79.56;102595.63;5038838;28;45458;-78
2022/01/29 02:25:35;;;;;;;;;10.25;9.00;;;;;6.71;79.67;102595.66;5049479;28;45404;-80
2022/01/29 02:28:14;;;;;;;;;17.50;11.00;;;;;6.71;79.70;102588.69;5029649;28;45495;-80
2022/01/29 02:30:41;;;;;;;;;10.75;9.00;;;;;6.68;80.63;102587.69;5042719;28;45333;-80
2022/01/29 02:33:11;;;;;;;;;17.50;14.00;;;;;6.63;80.32;102579.69;5040328;28;45271;-80
2022/01/29 02:35:43;;;;;;;;;14.75;7.50;;;;;6.62;80.49;102580.56;5056151;28;45474;-80
2022/01/29 02:38:11;;;;;;;;;11.50;8.50;;;;;6.63;80.64;102578.81;5037900;28;45488;-80
2022/01/29 02:40:49;;;;;;;;;14.50;11.75;;;;;6.61;80.20;102564.75;5050342;28;45546;-79
2022/01/29 02:43:25;;;;;;;;;11.50;10.50;;;;;6.65;80.96;102566.59;5047741;28;46329;-80
2022/01/29 02:45:53;;;;;;;;;14.00;11.75;;;;;6.58;80.57;102548.03;5036530;28;45489;-80
2022/01/29 02:48:20;;;;;;;;;11.25;9.75;;;;;6.62;80.07;102542.84;5044453;28;45478;-80
2022/01/29 02:50:47;;;;;;;;;12.75;10.25;;;;;6.66;80.21;102550.88;5041855;28;45710;-80
2022/01/29 02:53:13;;;;;;;;;12.75;9.50;;;;;6.66;80.51;102550.88;5045046;28;46083;-81
2022/01/29 02:55:39;;;;;;;;;7.00;6.75;;;;;6.66;80.78;102542.09;5047934;28;45414;-80
2022/01/29 02:58:04;;;;;;;;;13.75;9.00;;;;;6.66;80.73;102534.22;5058616;28;45607;-81
2022/01/29 03:00:30;;;;;;;;;9.25;7.00;;;;;6.64;80.88;102530.66;5041186;28;45445;-80
2022/01/29 03:02:55;;;;;;;;;6.25;3.75;;;;;6.62;81.26;102522.75;5036365;28;46256;-80
2022/01/29 03:05:21;;;;;;;;;9.75;9.00;;;;;6.66;81.42;102523.69;5033621;28;45312;-80
2022/01/29 03:07:46;;;;;;;;;7.50;5.50;;;;;6.61;81.44;102523.59;5035867;28;45375;-81
2022/01/29 03:10:12;;;;;;;;;12.00;6.25;;;;;6.61;81.03;102520.94;5037922;28;45379;-82
2022/01/29 03:12:40;;;;;;;;;6.75;6.75;;;;;6.63;81.43;102510.47;5052642;28;45353;-80
2022/01/29 03:15:06;;;;;;;;;11.50;7.00;;;;;6.62;81.36;102516.56;5050070;28;45433;-80
2022/01/29 03:17:31;;;;;;;;;4.75;4.50;;;;;6.63;81.07;102502.59;5047769;28;45525;-80
2022/01/29 03:19:57;;;;;;;;;14.25;8.75;;;;;6.61;81.24;102512.19;5060581;28;45508;-79
2022/01/29 03:22:22;;;;;;;;;10.75;9.50;;;;;6.62;80.90;102508.69;5052077;28;45444;-80
2022/01/29 03:24:47;;;;;;;;;7.50;7.00;;;;;6.64;81.40;102512.28;5041148;28;45466;-80
2022/01/29 03:27:13;;;;;;;;;11.25;9.00;;;;;6.63;82.06;102507.84;5022995;28;45360;-80
2022/01/29 03:29:39;;;;;;;;;10.00;9.75;;;;;6.50;81.24;102483.88;5055327;28;45636;-81
2022/01/29 03:32:04;;;;;;;;;13.00;10.00;;;;;6.62;81.12;102508.69;5045092;28;45339;-80
2022/01/29 03:34:30;;;;;;;;;9.25;7.00;;;;;6.66;81.75;102507.94;5040302;28;45368;-81
2022/01/29 03:36:56;;;;;;;;;8.50;8.50;;;;;6.65;81.73;102508.78;5039187;28;45561;-81
2022/01/29 03:39:25;;;;;;;;;10.25;7.00;;;;;6.65;81.46;102508.78;5038912;27;45549;-82
2022/01/29 03:41:50;;;;;;;;;11.00;7.50;;;;;6.65;82.33;102519.28;5037642;28;46679;-80
2022/01/29 03:44:16;;;;;;;;;9.25;8.00;;;;;6.66;82.47;102519.31;5051513;28;45477;-81
2022/01/29 03:46:41;;;;;;;;;10.00;7.00;;;;;6.61;82.34;102512.19;5047787;28;45490;-80
2022/01/29 03:49:07;;;;;;;;;10.50;10.50;;;;;6.62;82.65;102514.84;5049548;28;45610;-80
2022/01/29 03:51:32;;;;;;;;;9.75;6.75;;;;;6.65;81.83;102514.03;5044142;28;45456;-81
2022/01/29 03:53:58;;;;;;;;;10.75;6.75;;;;;6.68;81.98;102522.00;5038263;28;47568;-81
2022/01/29 03:56:23;;;;;;;;;6.75;6.75;;;;;6.67;82.45;102513.22;5035339;28;45434;-80
2022/01/29 03:58:48;;;;;;;;;7.00;5.00;;;;;6.65;82.73;102507.06;5045720;28;45363;-81
2022/01/29 04:01:14;;;;;;;;;7.00;6.50;;;;;6.63;82.33;102498.22;5053094;28;46047;-80
2022/01/29 04:03:40;;;;;;;;;11.00;7.00;;;;;6.72;82.32;102515.97;5011594;28;45540;-80
2022/01/29 04:06:06;;;;;;;;;16.50;9.25;;;;;6.71;82.42;102499.34;5051214;28;45406;-81
2022/01/29 04:08:39;;;;;;;;;9.00;7.75;;;;;6.72;82.34;102505.47;5035758;28;45622;-80
2022/01/29 04:11:04;;;;;;;;;13.00;9.75;;;;;6.71;82.64;102514.19;5042901;28;46167;-80
2022/01/29 04:13:30;;;;;;;;;7.50;6.25;;;;;6.56;82.51;102491.94;5039211;28;45255;-80
2022/01/29 04:15:56;;;;;;;;;8.00;6.50;;;;;6.74;82.65;102509.00;5047940;28;45330;-80
2022/01/29 04:18:22;;;;;;;;;12.50;10.25;;;;;6.73;82.33;102502.00;5036955;28;45452;-81
2022/01/29 04:20:47;;;;;;;;;9.00;7.25;;;;;6.73;82.56;102491.50;5041603;28;46686;-80
2022/01/29 04:23:12;;;;;;;;;12.75;10.00;;;;;6.77;82.79;102498.59;5047336;28;45298;-80
2022/01/29 04:25:38;;;;;;;;;11.75;9.25;;;;;6.62;83.15;102479.78;5050017;28;45606;-80
2022/01/29 04:28:05;;;;;;;;;7.00;6.50;;;;;6.70;82.87;102492.28;5053433;28;45485;-80
2022/01/29 04:30:33;;;;;;;;;10.75;8.75;;;;;6.76;82.97;102494.19;5060944;28;46208;-79
2022/01/29 04:33:15;;;;;;;;;8.75;6.50;;;;;6.78;83.21;102497.75;5041597;28;45471;-81
2022/01/29 04:35:41;;;;;;;;;9.50;9.50;;;;;6.78;82.95;102503.00;5042630;28;45441;-79
2022/01/29 04:38:08;;;;;;;;;13.25;9.75;;;;;6.72;83.57;102492.31;5051603;28;45399;-79
2022/01/29 04:40:35;;;;;;;;;7.00;6.00;;;;;6.82;83.46;102512.75;5040401;28;46553;-80
2022/01/29 04:43:05;;;;;;;;;4.00;4.00;;;;;6.84;83.48;102499.66;5041447;28;45497;-80
2022/01/29 04:45:31;;;;;;;;;10.00;7.00;;;;;6.79;83.73;102486.38;5058607;28;45383;-80
2022/01/29 04:47:56;;;;;;;;;11.50;9.00;;;;;6.87;83.59;102494.47;5035751;28;45435;-80
2022/01/29 04:50:22;;;;;;;;;7.75;7.75;;;;;6.84;82.95;102490.00;5040626;28;46495;-80
2022/01/29 04:52:51;;;;;;;;;6.50;4.50;;;;;6.88;83.08;102497.13;5049978;28;45401;-80
2022/01/29 04:55:17;;;;;;;;;10.75;7.00;;;;;6.91;83.18;102491.09;5033158;28;45576;-79
2022/01/29 04:57:42;;;;;;;;;10.50;8.25;;;;;6.91;83.54;102481.44;5058640;28;45371;-80
2022/01/29 05:00:22;;;;;;;;;9.25;9.00;;;;;6.89;83.07;102491.03;5055812;28;45324;-80
2022/01/29 05:02:53;;;;;;;;;7.00;6.00;;;;;6.97;83.10;102491.25;5042539;28;45442;-79
2022/01/29 05:05:19;;;;;;;;;9.75;4.25;;;;;6.91;83.70;102484.06;5051177;28;45591;-81
2022/01/29 05:07:45;;;;;;;;;10.25;10.00;;;;;6.98;83.60;102493.00;5050646;28;45580;-80
2022/01/29 05:10:12;;;;;;;;;8.75;7.75;;;;;6.98;83.68;102485.09;5052611;28;45556;-80
2022/01/29 05:12:53;;;;;;;;;10.75;7.50;;;;;6.99;83.49;102488.66;5051514;28;45434;-80
2022/01/29 05:15:29;;;;;;;;;6.75;6.75;;;;;7.01;83.50;102493.06;5047493;28;45524;-80
2022/01/29 05:28:51;;;;;;;;;11.00;10.50;;;;;7.07;83.43;102497.59;5049115;28;45505;-80
2022/01/29 05:31:17;;;;;;;;;12.00;8.00;;;;;7.08;83.23;102494.13;5050546;28;46698;-80
2022/01/29 05:33:42;;;;;;;;;10.50;7.00;;;;;7.11;84.02;102499.47;5040881;28;45930;-79
2022/01/29 05:36:07;;;;;;;;;14.00;9.75;;;;;7.11;83.83;102504.72;5042899;28;45291;-80
2022/01/29 05:38:34;;;;;;;;;12.25;9.25;;;;;7.14;84.22;102503.94;5043241;28;45416;-80
2022/01/29 05:40:59;;;;;;;;;9.25;7.50;;;;;7.06;83.67;102477.41;5051496;28;45597;-80
2022/01/29 05:43:25;;;;;;;;;11.00;7.00;;;;;7.15;83.42;102487.28;5037388;28;45442;-80
2022/01/29 05:45:50;;;;;;;;;9.00;8.50;;;;;7.13;83.28;102481.97;5048560;28;45338;-79
2022/01/29 05:48:19;;;;;;;;;8.50;6.00;;;;;7.14;84.07;102477.63;5047870;28;45650;-80
2022/01/29 05:50:44;;;;;;;;;12.50;8.50;;;;;7.20;83.96;102477.78;5049058;28;46470;-81
2022/01/29 05:53:09;;;;;;;;;10.50;9.50;;;;;7.12;83.98;102469.66;5050712;28;45478;-80
2022/01/29 05:55:35;;;;;;;;;10.25;10.00;;;;;7.17;83.78;102478.56;5055641;28;45442;-81
2022/01/29 05:58:00;;;;;;;;;10.75;7.75;;;;;7.20;83.31;102473.38;5043187;28;45494;-81
2022/01/29 06:00:26;;;;;;;;;10.00;8.75;;;;;7.21;84.11;102485.69;5039163;28;45285;-80
2022/01/29 06:03:03;;;;;;;;;10.00;9.25;;;;;7.23;84.08;102477.84;5055550;28;44812;-80
2022/01/29 06:05:29;;;;;;;;;12.75;10.50;;;;;7.26;83.57;102478.78;5039471;28;45472;-79
2022/01/29 06:07:55;;;;;;;;;10.75;8.00;;;;;7.14;83.60;102460.09;5052506;28;45541;-80
2022/01/29 06:10:20;;;;;;;;;11.25;8.50;;;;;7.26;83.93;102476.16;5047139;28;46226;-80
2022/01/29 06:13:04;;;;;;;;;10.50;8.00;;;;;7.22;83.86;102461.16;5041953;28;45492;-80
2022/01/29 06:15:32;;;;;;;;;8.75;7.00;;;;;7.28;84.15;102476.19;5042660;28;45410;-78
2022/01/29 06:17:58;;;;;;;;;6.50;6.50;;;;;7.31;84.12;102476.28;5044914;28;45410;-80
2022/01/29 06:20:26;;;;;;;;;6.50;6.50;;;;;7.29;83.93;102470.97;5053403;28;46008;-80
2022/01/29 06:22:52;;;;;;;;;7.25;7.00;;;;;7.31;83.67;102478.03;5047258;28;45262;-80
2022/01/29 06:25:18;;;;;;;;;10.25;8.75;;;;;7.27;83.93;102470.06;5042060;28;45225;-81
2022/01/29 06:27:43;;;;;;;;;9.50;7.00;;;;;7.33;83.71;102479.81;5053837;28;45325;-80
2022/01/29 06:30:09;;;;;;;;;11.00;7.25;;;;;7.35;83.66;102488.66;5057532;28;46055;-80
2022/01/29 06:32:34;;;;;;;;;12.50;7.75;;;;;7.33;83.90;102478.94;5033122;28;45511;-80
2022/01/29 06:35:00;;;;;;;;;9.25;7.50;;;;;7.38;83.89;102477.28;5053307;28;45393;-79
2022/01/29 06:37:26;;;;;;;;;14.00;12.00;;;;;7.40;83.69;102480.88;5039754;28;45507;-81
2022/01/29 06:39:51;;;;;;;;;11.75;6.50;;;;;7.39;84.13;102474.69;5046949;28;46618;-79
2022/01/29 06:42:17;;;;;;;;;6.50;6.50;;;;;7.40;83.62;102475.59;5039564;28;45457;-80
2022/01/29 06:44:42;;;;;;;;;9.00;9.00;;;;;7.43;83.51;102478.31;5054841;28;45405;-81
2022/01/29 06:47:08;;;;;;;;;7.00;6.00;;;;;7.43;83.65;102475.69;5039682;28;45414;-79
2022/01/29 06:49:33;;;;;;;;;11.00;7.25;;;;;7.45;83.29;102482.75;5037715;28;45367;-80
2022/01/29 06:51:59;;;;;;;;;7.25;4.75;;;;;7.46;84.31;102471.38;5039192;28;45317;-80
2022/01/29 06:54:24;;;;;;;;;6.25;6.25;;;;;7.50;83.93;102472.34;5038680;28;45484;-79
2022/01/29 06:56:50;;;;;;;;;11.00;5.50;;;;;7.50;84.04;102469.72;5047678;28;45493;-80
2022/01/29 06:59:15;;;;;;;;;7.75;6.50;;;;;7.52;83.55;102475.88;5043897;28;45535;-79
2022/01/29 07:01:41;;;;;;;;;6.50;6.50;;;;;7.50;83.84;102461.81;5046021;28;45343;-80
2022/01/29 07:04:06;;;;;;;;;5.00;5.00;;;;;7.54;84.05;102473.28;5053846;28;45372;-82
2022/01/29 07:06:32;;;;;;;;;9.50;8.00;;;;;7.55;84.18;102465.44;5042197;28;45776;-79
2022/01/29 07:08:58;;;;;;;;;6.00;4.00;;;;;7.57;83.73;102473.34;5051888;28;46831;-79
2022/01/29 07:11:25;;;;;;;;;9.50;6.50;;;;;7.57;83.91;102478.63;5043478;28;45560;-80
2022/01/29 07:14:01;;;;;;;;;8.00;7.50;;;;;7.56;84.58;102475.09;5043561;28;45374;-80
2022/01/29 07:16:33;;;;;;;;;8.00;4.25;;;;;7.59;84.14;102471.63;5048745;28;45563;-80
2022/01/29 07:18:59;;;;;;;;;5.75;4.75;;;;;7.60;83.69;102473.41;5042195;28;46529;-80
2022/01/29 07:21:24;;;;;;;;;6.00;6.00;;;;;7.60;83.25;102463.78;5042976;28;45445;-80
2022/01/29 07:23:50;;;;;;;;;14.25;11.75;;;;;7.54;83.37;102444.34;5035556;28;45490;-76
2022/01/29 07:26:19;;;;;;;;;5.75;5.75;;;;;7.62;83.87;102454.19;5042950;28;45429;-76
2022/01/29 07:28:46;;;;;;;;;4.50;4.50;;;;;7.59;83.76;102446.22;5047584;28;46615;-76
2022/01/29 07:31:12;;;;;;;;;9.25;6.50;;;;;7.64;83.28;102456.84;5036082;28;45407;-76
2022/01/29 07:33:37;;;;;;;;;4.25;2.50;;;;;7.63;83.63;102448.03;5037794;28;45379;-75
2022/01/29 07:36:03;;;;;;;;;6.00;4.00;;;;;7.68;83.25;102456.03;5037971;28;45423;-74
2022/01/29 07:38:28;;;;;;;;;4.00;4.00;;;;;7.68;83.77;102461.31;5035767;28;46037;-77
2022/01/29 07:40:53;;;;;;;;;9.00;4.75;;;;;7.62;83.40;102454.19;5041350;28;45659;-75
2022/01/29 07:43:19;;;;;;;;;5.75;2.25;;;;;7.72;83.91;102457.03;5046942;28;45477;-76
2022/01/29 07:45:44;;;;;;;;;6.50;2.25;;;;;7.74;83.48;102465.81;5032704;28;45561;-80
2022/01/29 07:48:10;;;;;;;;;4.50;3.00;;;;;7.77;83.35;102465.88;5054100;28;46234;-80
2022/01/29 07:50:35;;;;;;;;;4.00;4.00;;;;;7.80;83.63;102468.59;5045171;28;45476;-79
2022/01/29 07:53:01;;;;;;;;;6.50;4.75;;;;;7.84;83.44;102462.53;5035210;28;45379;-80
2022/01/29 07:55:27;;;;;;;;;3.00;1.25;;;;;7.86;82.93;102463.44;5050756;28;45618;-79
2022/01/29 07:57:52;;;;;;;;;5.00;3.00;;;;;7.82;83.41;102453.72;5030213;28;46255;-81
2022/01/29 08:00:18;;;;;;;;;3.25;3.25;;;;;7.90;83.46;102457.41;5058254;28;45413;-80
2022/01/29 08:02:43;;;;;;;;;1.00;1.00;;;;;7.96;82.59;102465.44;5046189;28;45395;-80
2022/01/29 08:05:10;;;;;;;;;4.00;1.00;;;;;7.97;82.71;102454.06;5036309;28;45462;-81
2022/01/29 08:07:36;;;;;;;;;7.00;5.00;;;;;7.95;82.33;102447.84;5044051;28;46198;-80
2022/01/29 08:10:01;;;;;;;;;2.00;1.50;;;;;8.08;82.80;102461.28;5046822;28;45453;-80
2022/01/29 08:12:27;;;;;;;;;2.75;2.75;;;;;8.10;83.19;102459.56;5032612;28;45688;-81
2022/01/29 08:14:53;;;;;;;;;2.00;1.75;;;;;8.13;82.88;102459.63;5039325;28;45588;-80
2022/01/29 08:17:20;;;;;;;;;4.75;1.50;;;;;8.18;83.05;102458.88;5040041;28;46801;-81
2022/01/29 08:19:45;;;;;;;;;4.25;3.00;;;;;8.17;82.47;102446.53;5035448;28;45415;-81
2022/01/29 08:22:11;;;;;;;;;1.25;1.25;;;;;8.30;82.24;102455.56;5044831;28;45386;-80
2022/01/29 08:24:36;;;;;;;;;1.00;1.00;;;;;8.30;82.02;102442.38;5037547;28;45418;-80
2022/01/29 08:27:02;;;;;;;;;4.00;1.50;;;;;8.39;82.19;102448.69;5048450;28;46270;-79
2022/01/29 08:29:27;;;;;;;;;4.00;1.00;;;;;8.43;81.68;102446.16;5055405;28;45525;-79
2022/01/29 08:31:52;;;;;;;;;1.00;1.00;;;;;8.44;81.47;102449.69;5054859;28;45304;-80
2022/01/29 08:34:18;;;;;;;;;1.00;1.00;;;;;8.41;81.79;102445.25;5049232;28;45561;-80
2022/01/29 08:36:43;;;;;;;;;4.00;2.00;;;;;8.49;81.82;102458.59;5026979;28;45526;-80
2022/01/29 08:39:08;;;;;;;;;0.00;0.00;;;;;8.44;81.91;102444.44;5029504;28;45593;-80
2022/01/29 08:41:35;;;;;;;;;2.00;1.00;;;;;8.56;81.67;102455.19;5040682;28;45624;-80
2022/01/29 08:44:01;;;;;;;;;1.00;1.00;;;;;8.57;81.52;102454.34;5042287;28;45514;-80
2022/01/29 08:46:26;;;;;;;;;7.00;1.00;;;;;8.64;81.67;102457.97;5052965;28;46397;-80
2022/01/29 08:48:51;;;;;;;;;6.50;2.00;;;;;8.66;81.61;102458.91;5054403;28;45335;-81
2022/01/29 08:51:17;;;;;;;;;0.50;0.50;;;;;8.68;81.21;102454.53;5050856;28;45370;-80
2022/01/29 08:53:43;;;;;;;;;3.50;0.00;;;;;8.70;81.95;102447.56;5034053;28;45316;-80
2022/01/29 08:56:08;;;;;;;;;2.50;1.00;;;;;8.67;81.69;102443.09;5033078;28;45356;-80
2022/01/29 08:58:33;;;;;;;;;0.00;0.00;;;;;8.73;80.90;102458.16;5037706;28;45323;-80
2022/01/29 09:00:59;;;;;;;;;0.00;0.00;;;;;8.70;81.26;102439.66;5038575;28;45457;-78
2022/01/29 09:03:25;;;;;;;;;4.00;3.00;;;;;8.77;81.28;102452.06;5035634;28;45407;-80
2022/01/29 09:05:51;;;;;;;;;0.75;0.75;;;;;8.75;81.65;102445.00;5033550;28;45537;-80
2022/01/29 09:08:17;;;;;;;;;0.25;0.00;;;;;8.77;81.55;102445.91;5034161;28;45535;-81
2022/01/29 09:10:42;;;;;;;;;3.00;1.00;;;;;8.85;81.84;102457.44;5037390;28;45371;-80
2022/01/29 09:13:12;;;;;;;;;3.75;1.00;;;;;8.88;81.39;102449.59;5036920;28;45642;-80
2022/01/29 09:15:38;;;;;;;;;0.00;0.00;;;;;8.94;81.02;102454.97;5037145;28;46197;-80
2022/01/29 09:18:03;;;;;;;;;0.75;0.75;;;;;8.92;80.53;102443.50;5037255;28;45502;-80
2022/01/29 09:20:30;;;;;;;;;1.00;1.00;;;;;9.00;81.30;102447.19;5036862;28;45609;-79
2022/01/29 09:22:56;;;;;;;;;2.25;1.50;;;;;9.01;80.60;102438.38;5037015;28;45392;-80
2022/01/29 09:25:22;;;;;;;;;0.00;0.00;;;;;9.01;80.22;102441.03;5037196;28;46367;-81
2022/01/29 09:27:47;;;;;;;;;0.00;0.00;;;;;9.11;79.96;102438.53;5037203;28;45335;-79
2022/01/29 09:30:13;;;;;;;;;0.00;0.00;;;;;9.13;79.97;102434.19;5042043;28;45296;-80
2022/01/29 09:32:39;;;;;;;;;0.00;0.00;;;;;9.19;79.62;102442.19;5041267;28;45325;-80
2022/01/29 09:35:05;;;;;;;;;2.50;1.00;;;;;9.23;79.94;102441.34;5036694;28;45461;-80
2022/01/29 09:37:32;;;;;;;;;3.00;3.00;;;;;9.27;79.68;102432.63;5036883;28;45414;-80
2022/01/29 09:39:57;;;;;;;;;0.00;0.00;;;;;9.34;79.52;102431.88;5037566;28;45379;-81
2022/01/29 09:42:23;;;;;;;;;0.25;0.25;;;;;9.40;78.92;102416.13;5037208;28;45440;-80
2022/01/29 09:44:51;;;;;;;;;0.75;0.75;;;;;9.57;78.65;102428.66;5037861;28;46042;-80
2022/01/29 09:47:21;;;;;;;;;0.75;0.75;;;;;9.63;78.29;102433.16;5037691;28;45519;-80
2022/01/29 09:49:47;;;;;;;;;0.25;0.25;;;;;9.63;77.97;102427.88;5038845;28;45671;-81
2022/01/29 09:52:13;;;;;;;;;0.50;0.50;;;;;9.54;77.63;102407.50;5037234;28;45628;-81
2022/01/29 09:54:38;;;;;;;;;0.25;0.00;;;;;9.68;78.07;102428.81;5037638;28;45497;-79
2022/01/29 09:57:04;;;;;;;;;0.50;0.50;;;;;9.63;77.83;102427.88;5036342;28;45650;-79
2022/01/29 09:59:29;;;;;;;;;0.00;0.00;;;;;9.63;78.06;102430.50;5039310;28;45394;-81
2022/01/29 10:01:55;;;;;;;;;4.75;1.50;;;;;9.61;77.90;102425.22;5056302;28;45529;-80
2022/01/29 10:04:20;;;;;;;;;0.75;0.25;;;;;9.62;78.14;102437.53;5038813;28;45320;-80
2022/01/29 10:07:15;;;;;;;;;1.00;1.00;;;;;9.58;78.17;102440.97;5037388;28;45438;-81
2022/01/29 10:09:41;;;;;;;;;4.50;1.00;;;;;9.55;78.91;102446.22;5036843;28;45454;-82
2022/01/29 10:12:22;;;;;;;;;3.00;1.50;;;;;9.53;78.84;102447.97;5052048;28;45425;-81
2022/01/29 10:14:55;;;;;;;;;0.00;0.00;;;;;9.55;79.51;102452.41;5036442;28;45406;-80
2022/01/29 10:17:39;;;;;;;;;0.50;0.50;;;;;9.58;79.08;102447.16;5035808;28;45407;-80
2022/01/29 10:20:11;;;;;;;;;1.75;1.75;;;;;9.56;79.05;102448.00;5036264;28;45407;-81
2022/01/29 10:22:37;;;;;;;;;0.00;0.00;;;;;9.54;79.15;102440.06;5037428;28;45398;-81
2022/01/29 10:25:10;;;;;;;;;1.00;1.00;;;;;9.45;79.62;102428.50;5036491;28;45998;-79
2022/01/29 10:27:35;;;;;;;;;0.25;0.25;;;;;9.55;79.66;102447.13;5036577;28;45383;-80
2022/01/29 10:30:02;;;;;;;;;1.00;0.00;;;;;9.58;79.33;102454.19;5038301;28;45468;-80
2022/01/29 10:32:28;;;;;;;;;0.75;0.00;;;;;9.58;80.15;102448.91;5056060;28;45509;-80
2022/01/29 10:34:55;;;;;;;;;0.25;0.25;;;;;9.56;79.54;102448.88;5037568;28;45558;-80
2022/01/29 10:37:26;;;;;;;;;6.25;0.00;;;;;9.58;79.30;102447.16;5048435;28;45549;-79
2022/01/29 10:40:00;;;;;;;;;0.00;0.00;;;;;9.66;79.00;102439.34;5053935;28;44780;-81
2022/01/29 10:42:33;;;;;;;;;1.50;1.00;;;;;9.73;78.91;102435.94;5048871;28;45459;-80
2022/01/29 10:45:02;;;;;;;;;0.50;0.50;;;;;9.76;78.82;102430.69;5050310;28;45186;-80
2022/01/29 10:47:30;;;;;;;;;0.00;0.00;;;;;9.84;78.31;102440.44;5043201;28;45399;-80
2022/01/29 10:50:02;;;;;;;;;0.25;0.25;;;;;9.92;78.17;102439.66;5037640;28;45325;-80
2022/01/29 10:52:30;;;;;;;;;1.00;0.00;;;;;9.96;77.55;102427.41;5036799;28;45635;-81
2022/01/29 10:55:00;;;;;;;;;0.00;0.00;;;;;9.97;77.49;102421.22;5035854;28;46264;-81
2022/01/29 10:57:32;;;;;;;;;1.00;1.00;;;;;10.08;77.31;102435.47;5036413;28;45364;-79
2022/01/29 10:59:57;;;;;;;;;1.75;0.00;;;;;10.08;77.22;102427.53;5039288;28;45402;-80
2022/01/29 11:02:27;;;;;;;;;2.00;2.00;;;;;10.05;76.92;102422.22;5039046;28;45325;-80
2022/01/29 11:04:52;;;;;;;;;1.00;1.00;;;;;10.13;76.80;102436.41;5035557;28;45449;-80
2022/01/29 11:07:24;;;;;;;;;2.50;0.50;;;;;10.15;76.32;102431.13;5035527;28;45505;-80
2022/01/29 11:09:51;;;;;;;;;2.00;0.00;;;;;10.22;76.57;102440.00;5035747;28;45482;-81
2022/01/29 11:12:19;;;;;;;;;2.00;2.00;;;;;10.23;76.42;102439.13;5036658;28;45491;-81
2022/01/29 11:14:46;;;;;;;;;2.00;0.00;;;;;10.20;76.14;102437.34;5033481;28;45416;-80
2022/01/29 11:17:12;;;;;;;;;0.00;0.00;;;;;10.25;76.14;102434.78;5034454;28;45294;-82
2022/01/29 11:19:40;;;;;;;;;0.00;0.00;;;;;10.22;76.23;102424.13;5035166;28;45263;-81
2022/01/29 11:22:08;;;;;;;;;0.00;0.00;;;;;10.19;76.16;102438.22;5035851;28;45536;-81
2022/01/29 11:24:36;;;;;;;;;0.00;0.00;;;;;10.23;76.36;102440.06;5034781;28;46549;-81
2022/01/29 11:27:15;;;;;;;;;0.00;0.00;;;;;10.19;76.54;102439.97;5034929;28;45452;-81
2022/01/29 11:29:56;;;;;;;;;0.00;0.00;;;;;10.18;76.91;102433.81;5038872;28;45425;-81
2022/01/29 11:32:21;;;;;;;;;0.00;0.00;;;;;10.17;76.72;102447.00;5038075;28;45311;-80
2022/01/29 11:35:07;;;;;;;;;0.75;0.00;;;;;10.16;76.99;102446.13;5038092;28;45322;-81
2022/01/29 11:37:43;;;;;;;;;7.75;4.25;;;;;10.21;77.05;102443.53;5036006;28;45398;-81
2022/01/29 11:40:15;;;;;;;;;1.00;1.00;;;;;10.19;77.27;102434.69;5035279;28;45447;-81